Time;durP1;ratioP1;P1;durP2;ratioP2;P2;SDS_P1;SDS_P2;PMS_P1;PMS_P2;Temp;Humidity;BMP_temperature;BMP_pressure;BME280_temperature;BME280_humidity;BME280_pressure;Samples;Min_cycle;Max_cycle;Signal;HPM_P1;HPM_P2
2021/08/17 00:01:28;;;;;;;9.05;4.95;;;12.40;52.40;;;;;;5075964;28;20056;-79
2021/08/17 00:04:17;;;;;;;11.23;5.70;;;12.30;51.30;;;;;;5071611;28;20040;-79
2021/08/17 00:07:05;;;;;;;9.27;5.20;;;12.20;51.40;;;;;;5086791;28;20181;-79
2021/08/17 00:09:54;;;;;;;10.52;5.22;;;12.40;53.00;;;;;;5087084;28;20052;-79
2021/08/17 00:12:44;;;;;;;10.02;6.18;;;12.30;50.70;;;;;;5091598;28;20051;-78
2021/08/17 00:15:34;;;;;;;12.48;5.80;;;12.30;51.50;;;;;;5065466;28;20070;-78
2021/08/17 00:18:23;;;;;;;9.95;5.53;;;12.40;52.60;;;;;;5066427;28;20047;-78
2021/08/17 00:21:13;;;;;;;9.82;5.80;;;12.40;50.70;;;;;;5089366;28;20052;-78
2021/08/17 00:24:02;;;;;;;11.07;5.25;;;12.40;50.60;;;;;;5077466;28;20047;-78
2021/08/17 00:26:50;;;;;;;10.95;6.10;;;12.30;50.10;;;;;;5068422;28;20047;-78
2021/08/17 00:29:40;;;;;;;10.18;5.40;;;12.30;50.90;;;;;;5074745;28;20040;-78
2021/08/17 00:32:28;;;;;;;9.52;5.82;;;12.40;51.60;;;;;;5077649;28;20044;-78
2021/08/17 00:35:17;;;;;;;12.65;6.60;;;12.50;52.10;;;;;;5076685;28;20411;-78
2021/08/17 00:38:06;;;;;;;15.25;6.72;;;12.50;52.40;;;;;;5065789;28;20692;-78
2021/08/17 00:40:55;;;;;;;9.35;6.10;;;12.50;51.70;;;;;;5070689;28;20067;-79
2021/08/17 00:43:43;;;;;;;13.48;6.72;;;12.40;51.50;;;;;;5075717;28;20040;-78
2021/08/17 00:46:33;;;;;;;14.15;7.18;;;12.40;51.60;;;;;;5091756;28;20036;-78
2021/08/17 00:49:22;;;;;;;10.52;6.20;;;12.50;51.70;;;;;;5088810;28;20562;-78
2021/08/17 00:52:11;;;;;;;11.57;6.10;;;12.50;49.10;;;;;;5080801;28;20059;-78
2021/08/17 00:54:59;;;;;;;11.18;6.13;;;12.40;46.70;;;;;;5074049;28;20048;-78
2021/08/17 00:57:48;;;;;;;11.02;6.43;;;12.40;47.50;;;;;;5080964;28;20828;-78
2021/08/17 01:00:37;;;;;;;11.10;5.97;;;12.40;46.70;;;;;;5095036;28;20065;-78
2021/08/17 01:03:28;;;;;;;10.02;5.55;;;12.40;46.00;;;;;;5097133;27;20043;-77
2021/08/17 01:06:17;;;;;;;12.43;6.40;;;12.40;44.50;;;;;;5093917;27;20549;-78
2021/08/17 01:09:05;;;;;;;11.68;6.20;;;12.30;45.40;;;;;;5093181;27;20052;-78
2021/08/17 01:11:54;;;;;;;11.30;6.05;;;12.20;45.80;;;;;;5075824;28;20738;-79
2021/08/17 01:14:42;;;;;;;11.50;7.00;;;12.20;45.30;;;;;;5099408;27;20043;-78
2021/08/17 01:17:31;;;;;;;11.45;6.50;;;12.20;46.00;;;;;;5098084;27;20575;-79
2021/08/17 01:20:21;;;;;;;12.38;7.03;;;12.10;46.20;;;;;;5097742;27;20051;-78
2021/08/17 01:23:09;;;;;;;12.63;7.25;;;12.10;47.10;;;;;;5097439;28;20092;-78
2021/08/17 01:25:59;;;;;;;11.40;6.70;;;12.00;47.20;;;;;;5092871;28;20612;-78
2021/08/17 01:28:47;;;;;;;12.82;6.93;;;11.90;47.10;;;;;;5091462;28;20579;-79
2021/08/17 01:31:36;;;;;;;12.63;7.32;;;12.00;47.80;;;;;;5081069;28;20044;-78
2021/08/17 01:34:24;;;;;;;10.07;5.97;;;11.90;47.10;;;;;;5087415;28;20229;-78
2021/08/17 01:37:13;;;;;;;13.80;6.20;;;11.90;46.20;;;;;;5086861;28;20033;-78
2021/08/17 01:40:02;;;;;;;13.23;6.40;;;11.90;46.60;;;;;;5078199;28;20040;-78
2021/08/17 01:42:52;;;;;;;10.98;5.95;;;11.90;44.70;;;;;;5078236;28;20442;-78
2021/08/17 01:45:41;;;;;;;13.68;6.68;;;11.80;42.80;;;;;;5088989;28;20044;-78
2021/08/17 01:48:31;;;;;;;13.43;6.20;;;11.90;42.80;;;;;;5087208;28;20426;-78
2021/08/17 01:51:20;;;;;;;12.93;6.47;;;11.80;41.80;;;;;;5080187;28;20151;-78
2021/08/17 01:54:09;;;;;;;11.82;6.88;;;11.90;44.70;;;;;;5088322;28;20052;-78
2021/08/17 01:56:57;;;;;;;10.68;5.60;;;11.90;43.20;;;;;;5100605;28;20043;-78
2021/08/17 01:59:47;;;;;;;8.98;5.05;;;11.80;42.20;;;;;;5102697;27;20055;-78
2021/08/17 02:02:35;;;;;;;10.82;4.85;;;11.70;40.00;;;;;;5103801;27;20052;-78
2021/08/17 02:05:25;;;;;;;11.02;6.07;;;11.70;40.90;;;;;;5102749;28;20055;-78
2021/08/17 02:08:13;;;;;;;11.32;6.03;;;11.60;42.40;;;;;;5097759;28;20416;-78
2021/08/17 02:11:01;;;;;;;11.43;5.53;;;11.60;44.10;;;;;;5080169;28;20415;-78
2021/08/17 02:13:50;;;;;;;9.48;5.55;;;11.60;44.20;;;;;;5099642;28;20391;-78
2021/08/17 02:16:40;;;;;;;13.65;6.60;;;11.60;45.00;;;;;;5093023;28;20048;-78
2021/08/17 02:19:28;;;;;;;12.88;6.05;;;11.60;45.00;;;;;;5088742;28;20171;-78
2021/08/17 02:22:16;;;;;;;10.88;5.88;;;11.60;44.70;;;;;;5096022;28;20138;-78
2021/08/17 02:25:06;;;;;;;14.82;6.40;;;11.50;44.90;;;;;;5099343;28;20043;-78
2021/08/17 02:27:55;;;;;;;9.70;5.35;;;11.50;44.60;;;;;;5095193;27;20051;-79
2021/08/17 02:30:43;;;;;;;10.40;5.85;;;11.50;44.70;;;;;;5096207;27;20048;-78
2021/08/17 02:33:33;;;;;;;13.18;7.72;;;11.50;44.40;;;;;;5102495;27;20083;-78
2021/08/17 02:36:21;;;;;;;16.48;8.38;;;11.50;46.10;;;;;;5094752;28;20051;-78
2021/08/17 02:39:10;;;;;;;19.98;7.85;;;11.50;46.70;;;;;;5092595;27;20052;-79
2021/08/17 02:41:58;;;;;;;11.50;6.80;;;11.60;45.90;;;;;;5095009;28;20351;-79
2021/08/17 02:44:47;;;;;;;11.52;6.30;;;11.60;46.70;;;;;;5084346;28;20039;-79
2021/08/17 02:47:35;;;;;;;12.50;6.50;;;11.60;46.70;;;;;;5082140;28;20048;-79
2021/08/17 02:50:25;;;;;;;12.00;6.25;;;11.60;45.50;;;;;;5082814;28;20055;-79
2021/08/17 02:53:14;;;;;;;9.98;5.95;;;11.50;42.50;;;;;;5084303;28;20423;-79
2021/08/17 02:56:03;;;;;;;13.20;6.32;;;11.50;43.10;;;;;;5072344;28;20048;-79
2021/08/17 02:58:51;;;;;;;9.18;5.80;;;11.50;43.40;;;;;;5074602;28;20511;-79
2021/08/17 03:01:40;;;;;;;11.18;6.03;;;11.60;43.90;;;;;;5098868;28;20040;-78
2021/08/17 03:04:28;;;;;;;11.40;6.13;;;11.50;42.30;;;;;;5082080;27;20071;-78
2021/08/17 03:07:18;;;;;;;13.18;5.88;;;11.40;42.80;;;;;;5080793;28;20379;-77
2021/08/17 03:10:07;;;;;;;12.43;5.80;;;11.40;42.90;;;;;;5084258;28;20048;-79
2021/08/17 03:12:56;;;;;;;8.48;5.50;;;11.50;42.30;;;;;;5083358;28;20046;-78
2021/08/17 03:15:44;;;;;;;9.73;5.70;;;11.40;42.00;;;;;;5082798;28;20565;-78
2021/08/17 03:18:33;;;;;;;11.63;5.72;;;11.40;42.60;;;;;;5088667;28;20035;-78
2021/08/17 03:21:21;;;;;;;10.18;5.30;;;11.50;42.30;;;;;;5093726;27;20044;-77
2021/08/17 03:24:11;;;;;;;9.65;5.57;;;11.40;41.50;;;;;;5086435;27;20048;-78
2021/08/17 03:27:00;;;;;;;12.73;5.97;;;11.40;41.50;;;;;;5080459;28;20075;-78
2021/08/17 03:29:48;;;;;;;12.40;5.05;;;11.40;41.40;;;;;;5081816;28;20054;-77
2021/08/17 03:32:36;;;;;;;12.90;5.50;;;11.40;40.70;;;;;;5082600;28;20040;-78
2021/08/17 03:35:25;;;;;;;7.03;5.32;;;11.30;41.10;;;;;;5103767;28;20058;-78
2021/08/17 03:38:14;;;;;;;8.18;5.40;;;11.30;41.10;;;;;;5087912;28;20514;-78
2021/08/17 03:41:04;;;;;;;14.65;6.43;;;11.30;42.90;;;;;;5084712;28;20056;-78
2021/08/17 03:43:52;;;;;;;12.43;5.95;;;11.20;44.10;;;;;;5083938;28;20442;-78
2021/08/17 03:46:41;;;;;;;11.02;5.78;;;11.10;44.10;;;;;;5077439;28;20526;-77
2021/08/17 03:49:29;;;;;;;10.60;5.93;;;11.10;45.30;;;;;;5081408;28;20119;-78
2021/08/17 03:52:18;;;;;;;11.70;6.25;;;10.90;46.20;;;;;;5083353;28;20056;-78
2021/08/17 03:55:09;;;;;;;14.57;5.80;;;10.90;46.20;;;;;;5078680;28;20055;-79
2021/08/17 03:57:59;;;;;;;12.35;5.97;;;10.80;46.20;;;;;;5075700;28;21240;-78
2021/08/17 04:00:47;;;;;;;9.38;5.35;;;10.90;46.20;;;;;;5084033;28;20483;-78
2021/08/17 04:03:36;;;;;;;10.40;5.90;;;10.90;46.20;;;;;;5093886;28;20047;-78
2021/08/17 04:06:24;;;;;;;10.52;6.10;;;10.80;44.90;;;;;;5089218;28;20241;-78
2021/08/17 04:09:12;;;;;;;10.82;6.13;;;10.80;46.00;;;;;;5088993;28;20059;-79
2021/08/17 04:12:01;;;;;;;9.40;5.55;;;10.80;45.80;;;;;;5104792;28;20119;-78
2021/08/17 04:14:51;;;;;;;10.88;5.40;;;10.80;46.00;;;;;;5105120;28;20055;-78
2021/08/17 04:17:40;;;;;;;7.68;5.18;;;10.80;46.10;;;;;;5102261;28;20055;-78
2021/08/17 04:20:30;;;;;;;12.90;5.90;;;10.70;46.00;;;;;;5102772;28;20526;-78
2021/08/17 04:23:18;;;;;;;11.18;5.95;;;10.70;46.10;;;;;;5102736;28;20079;-78
2021/08/17 04:26:07;;;;;;;11.77;5.65;;;10.80;46.10;;;;;;5092400;28;20048;-78
2021/08/17 04:28:55;;;;;;;11.32;6.22;;;10.70;46.00;;;;;;5092590;28;20049;-78
2021/08/17 04:31:45;;;;;;;10.00;5.90;;;10.80;46.10;;;;;;5092056;28;20075;-78
2021/08/17 04:34:34;;;;;;;9.25;5.40;;;10.80;45.30;;;;;;5103971;28;20036;-78
2021/08/17 04:37:23;;;;;;;9.27;5.50;;;10.80;45.50;;;;;;5104137;28;20115;-77
2021/08/17 04:40:11;;;;;;;12.95;6.28;;;10.90;44.60;;;;;;5112660;27;20044;-78
2021/08/17 04:43:00;;;;;;;10.95;5.32;;;11.30;41.90;;;;;;5109919;27;20433;-79
2021/08/17 04:45:49;;;;;;;10.68;5.82;;;11.60;38.50;;;;;;5107832;27;20072;-79
2021/08/17 04:48:39;;;;;;;9.88;4.95;;;11.90;33.50;;;;;;5106634;27;20047;-79
2021/08/17 04:51:28;;;;;;;8.93;5.50;;;11.50;34.00;;;;;;5110722;27;20130;-79
2021/08/17 04:54:16;;;;;;;9.82;5.20;;;11.80;31.20;;;;;;5106235;27;20113;-79
2021/08/17 04:57:05;;;;;;;10.60;5.13;;;12.30;25.70;;;;;;5110313;27;20048;-78
2021/08/17 04:59:53;;;;;;;11.63;5.43;;;12.20;25.40;;;;;;5102588;28;20062;-79
2021/08/17 05:02:42;;;;;;;10.27;5.25;;;13.60;13.90;;;;;;5095525;27;20043;-78
2021/08/17 05:05:32;;;;;;;8.98;5.00;;;14.10;6.80;;;;;;5108723;27;20047;-79
2021/08/17 05:08:20;;;;;;;8.35;5.07;;;14.50;5.40;;;;;;5105259;28;20051;-79
2021/08/17 05:11:09;;;;;;;9.15;4.40;;;14.70;1.60;;;;;;5107319;27;20052;-79
2021/08/17 05:13:57;;;;;;;8.40;4.28;;;15.30;1.00;;;;;;5091537;28;20406;-79
2021/08/17 05:16:46;;;;;;;8.18;4.65;;;16.10;1.00;;;;;;5106972;27;20139;-79
2021/08/17 05:19:34;;;;;;;7.68;4.70;;;15.90;1.00;;;;;;5106600;27;20043;-79
2021/08/17 05:22:24;;;;;;;6.97;4.00;;;16.00;1.00;;;;;;5111140;27;20058;-79
2021/08/17 05:25:13;;;;;;;7.35;4.32;;;16.20;1.00;;;;;;5107870;27;20048;-79
2021/08/17 05:28:03;;;;;;;9.48;4.47;;;16.20;1.00;;;;;;5103442;28;20068;-79
2021/08/17 05:30:52;;;;;;;11.15;4.20;;;17.00;1.00;;;;;;5111446;27;20051;-79
2021/08/17 05:33:40;;;;;;;8.90;4.25;;;16.50;1.00;;;;;;5108010;28;20047;-79
2021/08/17 05:36:28;;;;;;;7.20;4.25;;;16.60;1.00;;;;;;5106938;27;20039;-78
2021/08/17 05:39:18;;;;;;;5.85;3.80;;;17.40;1.00;;;;;;5107614;27;20109;-79
2021/08/17 05:42:08;;;;;;;8.57;3.88;;;17.80;1.00;;;;;;5104926;27;20043;-79
2021/08/17 05:44:57;;;;;;;6.38;4.35;;;17.50;1.00;;;;;;5108372;27;20054;-79
2021/08/17 05:47:46;;;;;;;9.00;4.40;;;16.90;1.00;;;;;;5107135;27;20062;-79
2021/08/17 05:50:35;;;;;;;9.23;4.55;;;14.50;1.00;;;;;;5103346;27;20046;-79
2021/08/17 05:53:24;;;;;;;7.65;4.50;;;14.00;3.10;;;;;;5112329;27;20050;-79
2021/08/17 05:56:14;;;;;;;8.07;4.30;;;13.70;5.90;;;;;;5092317;27;20063;-79
2021/08/17 05:59:03;;;;;;;6.90;4.10;;;13.70;6.90;;;;;;5109095;27;20426;-79
2021/08/17 06:01:51;;;;;;;7.43;4.18;;;13.90;7.60;;;;;;5092133;27;20115;-79
2021/08/17 06:04:40;;;;;;;8.35;4.00;;;13.60;6.50;;;;;;5107695;28;20031;-79
2021/08/17 06:07:28;;;;;;;8.32;4.88;;;13.80;8.00;;;;;;5105004;28;20043;-79
2021/08/17 06:10:17;;;;;;;8.13;4.57;;;14.10;6.80;;;;;;5106351;27;20116;-80
2021/08/17 06:13:07;;;;;;;8.70;4.63;;;14.20;6.90;;;;;;5102877;27;20144;-79
2021/08/17 06:15:57;;;;;;;10.65;4.75;;;13.90;6.70;;;;;;5104886;27;20054;-79
2021/08/17 06:18:45;;;;;;;11.15;4.95;;;14.00;5.80;;;;;;5090564;27;20470;-79
2021/08/17 06:21:34;;;;;;;10.13;4.85;;;14.30;6.80;;;;;;5075027;27;20047;-79
2021/08/17 06:24:23;;;;;;;7.88;4.38;;;14.40;4.90;;;;;;5090212;28;20051;-79
2021/08/17 06:27:11;;;;;;;7.75;4.35;;;14.70;4.20;;;;;;5080057;27;20388;-79
2021/08/17 06:30:12;;;;;;;7.30;4.68;;;14.70;2.50;;;;;;5100692;27;20060;-79
2021/08/17 06:33:14;;;;;;;8.25;5.28;;;14.70;3.50;;;;;;5108133;27;20040;-79
2021/08/17 06:36:03;;;;;;;7.93;4.43;;;14.60;5.30;;;;;;5107751;27;20047;-79
2021/08/17 06:38:52;;;;;;;8.57;4.50;;;14.90;3.60;;;;;;5106580;27;20051;-79
2021/08/17 06:41:40;;;;;;;10.45;5.03;;;14.90;3.00;;;;;;5090650;27;20080;-79
2021/08/17 06:44:29;;;;;;;7.55;4.80;;;14.60;3.60;;;;;;5091338;27;20160;-79
2021/08/17 06:47:19;;;;;;;9.43;4.20;;;14.60;1.90;;;;;;5107514;27;20047;-78
2021/08/17 06:50:08;;;;;;;8.25;4.07;;;14.70;3.50;;;;;;5088369;28;20439;-79
2021/08/17 06:52:56;;;;;;;7.80;4.60;;;14.70;2.90;;;;;;5095516;27;20366;-79
2021/08/17 06:55:45;;;;;;;7.38;4.38;;;14.80;2.70;;;;;;5071248;27;20742;-79
2021/08/17 06:58:34;;;;;;;8.95;4.63;;;14.70;1.70;;;;;;5091375;28;20089;-79
2021/08/17 07:01:22;;;;;;;9.27;5.03;;;14.60;2.90;;;;;;5075345;28;20797;-79
2021/08/17 07:04:13;;;;;;;12.52;5.47;;;14.60;2.60;;;;;;5093604;27;20051;-79
2021/08/17 07:07:01;;;;;;;9.07;4.80;;;14.60;3.40;;;;;;5106001;27;20043;-79
2021/08/17 07:09:49;;;;;;;9.27;5.57;;;14.80;2.90;;;;;;5089440;28;20134;-80
2021/08/17 07:12:38;;;;;;;8.40;4.80;;;15.60;1.60;;;;;;5106368;27;20422;-79
2021/08/17 07:15:27;;;;;;;9.60;4.97;;;15.90;1.00;;;;;;5088795;28;20044;-80
2021/08/17 07:18:16;;;;;;;7.78;4.40;;;15.90;1.00;;;;;;5102341;27;20039;-80
2021/08/17 07:21:06;;;;;;;10.57;5.05;;;16.30;1.00;;;;;;5068080;28;20054;-80
2021/08/17 07:23:54;;;;;;;11.68;6.78;;;15.70;1.00;;;;;;5109607;27;20239;-80
2021/08/17 07:26:43;;;;;;;10.25;5.70;;;15.80;1.00;;;;;;5103976;27;20055;-80
2021/08/17 07:29:31;;;;;;;10.98;4.95;;;15.30;1.10;;;;;;5102620;27;20509;-80
2021/08/17 07:32:19;;;;;;;10.02;5.03;;;14.70;1.60;;;;;;5105027;27;20051;-79
2021/08/17 07:35:09;;;;;;;13.20;5.63;;;14.90;3.70;;;;;;5105175;27;20051;-79
2021/08/17 07:38:00;;;;;;;12.32;6.13;;;15.40;1.00;;;;;;5105766;27;20043;-79
2021/08/17 07:40:49;;;;;;;10.93;5.38;;;15.90;1.00;;;;;;5105819;27;20189;-80
2021/08/17 07:43:37;;;;;;;8.98;5.07;;;15.90;1.00;;;;;;5091668;27;20071;-80
2021/08/17 07:46:26;;;;;;;9.52;5.60;;;15.70;1.00;;;;;;5104037;27;20044;-79
2021/08/17 07:49:15;;;;;;;10.57;5.90;;;15.10;1.00;;;;;;5106675;27;20051;-80
2021/08/17 07:52:03;;;;;;;15.23;5.68;;;15.20;1.00;;;;;;5075044;27;21014;-80
2021/08/17 07:54:53;;;;;;;8.80;5.88;;;15.40;1.00;;;;;;5099294;28;20973;-80
2021/08/17 07:57:42;;;;;;;9.77;5.82;;;15.90;1.00;;;;;;5101442;28;20415;-80
2021/08/17 08:00:30;;;;;;;11.25;6.28;;;16.00;1.00;;;;;;5095294;28;20458;-81
2021/08/17 08:03:19;;;;;;;11.15;5.95;;;15.70;1.00;;;;;;5105196;27;20047;-80
2021/08/17 08:06:08;;;;;;;11.88;5.70;;;16.10;1.00;;;;;;5102548;28;20053;-80
2021/08/17 08:08:57;;;;;;;9.25;5.57;;;16.10;1.00;;;;;;5086252;28;20054;-80
2021/08/17 08:11:47;;;;;;;9.38;5.20;;;15.60;1.00;;;;;;5104231;27;20122;-79
2021/08/17 08:14:35;;;;;;;7.50;5.70;;;15.40;1.00;;;;;;5113368;27;20241;-80
2021/08/17 08:17:24;;;;;;;10.32;6.05;;;15.60;1.00;;;;;;5102506;28;20052;-79
2021/08/17 08:20:14;;;;;;;10.65;6.32;;;16.20;1.00;;;;;;5097745;28;20054;-79
2021/08/17 08:23:05;;;;;;;11.10;6.03;;;15.30;1.00;;;;;;5102611;28;20202;-79
2021/08/17 08:25:54;;;;;;;10.48;6.25;;;15.70;1.00;;;;;;5108194;28;20089;-80
2021/08/17 08:28:44;;;;;;;10.30;5.75;;;15.40;1.00;;;;;;5087589;28;20122;-80
2021/08/17 08:31:32;;;;;;;10.10;6.47;;;15.90;1.00;;;;;;5073793;28;20422;-79
2021/08/17 08:34:21;;;;;;;9.88;6.30;;;15.80;1.00;;;;;;5084924;28;20055;-79
2021/08/17 08:37:09;;;;;;;10.30;5.95;;;16.30;1.00;;;;;;5095897;28;20845;-80
2021/08/17 08:40:01;;;;;;;9.10;5.30;;;16.30;1.00;;;;;;5102427;28;20074;-80
2021/08/17 08:42:52;;;;;;;9.18;5.45;;;16.60;1.00;;;;;;5106788;28;20043;-81
2021/08/17 08:45:46;;;;;;;8.68;4.88;;;16.30;1.00;;;;;;5101955;28;20054;-79
2021/08/17 08:48:35;;;;;;;8.00;5.00;;;16.60;1.00;;;;;;5100624;28;20063;-79
2021/08/17 08:51:24;;;;;;;9.85;4.75;;;16.50;1.00;;;;;;5097792;28;20048;-79
2021/08/17 08:54:26;;;;;;;8.05;4.47;;;16.20;1.00;;;;;;5100648;28;20406;-79
2021/08/17 08:57:15;;;;;;;8.55;5.18;;;17.00;1.00;;;;;;5100663;28;20055;-79
2021/08/17 09:00:05;;;;;;;10.13;5.00;;;17.10;1.00;;;;;;5098744;28;20055;-79
2021/08/17 09:02:54;;;;;;;8.18;4.60;;;17.40;1.00;;;;;;5072672;28;20032;-79
2021/08/17 09:05:54;;;;;;;7.00;4.57;;;16.80;1.00;;;;;;5103444;28;20043;-80
2021/08/17 09:08:43;;;;;;;7.63;5.40;;;17.40;1.00;;;;;;5104389;28;20060;-80
2021/08/17 09:11:31;;;;;;;9.82;5.13;;;17.90;1.00;;;;;;5100626;28;20305;-79
2021/08/17 09:14:22;;;;;;;8.55;4.95;;;17.00;1.00;;;;;;5087993;28;20051;-79
2021/08/17 09:17:12;;;;;;;7.55;4.60;;;16.80;1.00;;;;;;5104924;28;20050;-80
2021/08/17 09:20:29;;;;;;;7.00;4.30;;;17.90;1.00;;;;;;5090975;28;20096;-79
2021/08/17 09:23:26;;;;;;;5.78;3.92;;;17.00;1.00;;;;;;5091792;27;20051;-79
2021/08/17 09:26:24;;;;;;;8.80;4.55;;;17.50;1.00;;;;;;5105134;27;20150;-80
2021/08/17 09:29:25;;;;;;;7.53;4.50;;;16.50;1.00;;;;;;5088972;28;20047;-79
2021/08/17 09:32:18;;;;;;;5.90;4.22;;;16.30;1.00;;;;;;5107280;27;20039;-79
2021/08/17 09:35:07;;;;;;;8.80;5.57;;;17.30;1.00;;;;;;5106320;27;20057;-79
2021/08/17 09:38:08;;;;;;;8.13;4.85;;;16.70;1.00;;;;;;5106564;28;20054;-79
2021/08/17 09:40:57;;;;;;;9.02;5.13;;;17.40;1.00;;;;;;5087856;28;20039;-79
2021/08/17 09:43:55;;;;;;;8.10;5.47;;;17.80;1.00;;;;;;5068853;28;20134;-79
2021/08/17 09:46:44;;;;;;;8.60;5.43;;;17.80;1.00;;;;;;5090482;28;20040;-79
2021/08/17 09:49:33;;;;;;;7.75;5.05;;;17.40;1.00;;;;;;5093484;28;20043;-80
2021/08/17 09:52:21;;;;;;;7.72;4.43;;;17.30;1.00;;;;;;5104106;27;20063;-78
2021/08/17 09:55:16;;;;;;;7.70;4.32;;;17.40;1.00;;;;;;5107105;28;20127;-78
2021/08/17 09:58:17;;;;;;;5.28;3.92;;;17.30;1.00;;;;;;5100057;27;20059;-78
2021/08/17 10:01:07;;;;;;;9.50;5.53;;;17.10;1.00;;;;;;5088918;28;20039;-80
2021/08/17 10:03:57;;;;;;;8.90;5.05;;;16.20;1.00;;;;;;5109544;27;20075;-79
2021/08/17 10:06:46;;;;;;;7.63;5.35;;;16.70;1.00;;;;;;5092305;27;20035;-80
2021/08/17 10:09:35;;;;;;;8.32;4.20;;;17.10;1.00;;;;;;5103089;28;20048;-78
2021/08/17 10:12:25;;;;;;;7.13;4.15;;;16.70;1.00;;;;;;5101368;27;20062;-82
2021/08/17 10:15:16;;;;;;;7.18;4.78;;;17.30;1.00;;;;;;5091593;28;20047;-82
2021/08/17 10:18:05;;;;;;;7.63;5.13;;;17.00;1.00;;;;;;5106970;27;20051;-82
2021/08/17 10:20:56;;;;;;;8.15;4.82;;;17.00;1.00;;;;;;5104897;27;20096;-82
2021/08/17 10:23:45;;;;;;;6.25;4.50;;;17.40;1.00;;;;;;5108510;27;20090;-83
2021/08/17 10:26:34;;;;;;;8.40;4.75;;;17.80;1.00;;;;;;5101788;27;20062;-82
2021/08/17 10:29:28;;;;;;;7.28;4.13;;;17.80;1.00;;;;;;5104022;27;20047;-83
2021/08/17 10:32:36;;;;;;;6.53;4.13;;;17.60;1.00;;;;;;5093611;27;20082;-83
2021/08/17 10:35:53;;;;;;;8.48;4.10;;;17.60;1.00;;;;;;5107446;27;20443;-82
2021/08/17 10:38:47;;;;;;;6.97;4.32;;;18.30;1.00;;;;;;5107353;27;20077;-82
2021/08/17 10:41:38;;;;;;;6.47;4.32;;;17.60;1.00;;;;;;5101011;28;20047;-83
2021/08/17 10:44:34;;;;;;;4.70;3.63;;;17.90;1.00;;;;;;5105979;27;20410;-82
2021/08/17 10:47:33;;;;;;;5.07;3.70;;;17.00;1.00;;;;;;5086676;28;20109;-82
2021/08/17 10:50:32;;;;;;;5.22;3.58;;;18.50;1.00;;;;;;5105814;27;20039;-81
2021/08/17 10:53:37;;;;;;;6.78;4.10;;;18.50;1.00;;;;;;5107072;28;20130;-81
2021/08/17 10:56:30;;;;;;;6.72;3.70;;;18.50;1.00;;;;;;5101031;28;20048;-82
2021/08/17 10:59:41;;;;;;;5.72;3.53;;;19.20;1.00;;;;;;5086630;28;20122;-81
2021/08/17 11:02:55;;;;;;;4.80;3.72;;;18.60;1.00;;;;;;5093124;28;20054;-81
2021/08/17 11:05:51;;;;;;;5.75;3.10;;;17.60;1.00;;;;;;5104676;27;20040;-82
2021/08/17 11:08:41;;;;;;;5.85;3.63;;;17.50;1.00;;;;;;5105458;28;20582;-82
2021/08/17 11:11:30;;;;;;;5.63;3.33;;;17.90;1.00;;;;;;5088435;27;20131;-82
2021/08/17 11:14:20;;;;;;;5.00;3.15;;;17.80;1.00;;;;;;5102452;28;20055;-82
2021/08/17 11:17:11;;;;;;;7.18;3.63;;;17.40;1.00;;;;;;5105152;27;20098;-82
2021/08/17 11:20:00;;;;;;;5.53;3.50;;;17.40;1.00;;;;;;5059903;28;20073;-81
2021/08/17 11:22:49;;;;;;;5.93;3.78;;;18.20;1.00;;;;;;5081521;28;20174;-82
2021/08/17 11:25:38;;;;;;;6.60;3.95;;;18.30;1.00;;;;;;5102544;27;20088;-81
2021/08/17 11:28:26;;;;;;;6.05;4.00;;;17.90;1.00;;;;;;5103350;27;20040;-82
2021/08/17 11:31:15;;;;;;;5.28;3.53;;;18.40;1.00;;;;;;5097568;27;20065;-82
2021/08/17 11:34:18;;;;;;;7.40;4.40;;;18.70;1.00;;;;;;5082267;28;20046;-81
2021/08/17 11:37:08;;;;;;;7.68;4.28;;;18.60;1.00;;;;;;5082414;28;20040;-83
2021/08/17 11:39:58;;;;;;;5.68;3.75;;;18.90;1.00;;;;;;5091411;28;20067;-82
2021/08/17 11:42:50;;;;;;;6.25;3.45;;;18.90;1.00;;;;;;5095826;28;20125;-82
2021/08/17 11:45:39;;;;;;;4.90;3.80;;;18.00;1.00;;;;;;5095048;27;20044;-82
2021/08/17 11:48:30;;;;;;;5.07;3.22;;;18.20;1.00;;;;;;5086034;27;20051;-82
2021/08/17 11:51:24;;;;;;;4.55;2.78;;;18.00;1.00;;;;;;5072564;28;20052;-82
2021/08/17 11:54:14;;;;;;;4.05;2.67;;;18.40;1.00;;;;;;5091744;27;20446;-82
2021/08/17 11:57:04;;;;;;;5.68;3.13;;;18.30;1.00;;;;;;5093251;28;20058;-82
2021/08/17 11:59:52;;;;;;;4.75;3.10;;;18.00;1.00;;;;;;5098078;28;20048;-82
2021/08/17 12:02:44;;;;;;;5.78;3.17;;;19.10;1.00;;;;;;5081279;28;20047;-81
2021/08/17 12:05:34;;;;;;;7.10;3.65;;;19.30;1.00;;;;;;5105641;27;20042;-81
2021/08/17 12:08:28;;;;;;;6.07;3.70;;;18.90;1.00;;;;;;5055126;28;20514;-80
2021/08/17 12:11:21;;;;;;;8.68;4.07;;;18.80;1.00;;;;;;5101651;28;20051;-81
2021/08/17 12:14:10;;;;;;;4.65;3.30;;;19.10;1.00;;;;;;5101489;27;20080;-82
2021/08/17 12:16:58;;;;;;;4.70;3.25;;;19.00;1.00;;;;;;5099678;28;20050;-79
2021/08/17 12:19:50;;;;;;;4.70;3.10;;;18.00;1.00;;;;;;5104117;28;20043;-80
2021/08/17 12:22:39;;;;;;;4.50;3.10;;;19.00;1.00;;;;;;5073811;28;20048;-81
2021/08/17 12:25:29;;;;;;;5.80;3.47;;;19.40;1.00;;;;;;5101082;27;20051;-81
2021/08/17 12:28:29;;;;;;;8.05;4.18;;;18.90;1.00;;;;;;5097472;28;20491;-80
2021/08/17 12:31:19;;;;;;;6.13;2.97;;;19.30;1.00;;;;;;5075195;28;20044;-82
2021/08/17 12:34:09;;;;;;;4.72;3.15;;;19.60;1.00;;;;;;5101090;28;20520;-80
2021/08/17 12:36:58;;;;;;;6.38;3.78;;;19.30;1.00;;;;;;5095845;28;20055;-80
2021/08/17 12:39:53;;;;;;;4.85;3.00;;;19.80;1.00;;;;;;5084465;28;20035;-80
2021/08/17 12:42:44;;;;;;;6.20;3.10;;;20.30;1.00;;;;;;5101324;28;20044;-81
2021/08/17 12:45:34;;;;;;;6.05;3.30;;;19.40;1.00;;;;;;5108245;28;20119;-80
2021/08/17 12:48:23;;;;;;;5.75;3.22;;;19.60;1.00;;;;;;5082788;28;20276;-81
2021/08/17 12:51:20;;;;;;;5.03;3.10;;;19.80;1.00;;;;;;5083579;28;20426;-81
2021/08/17 12:54:08;;;;;;;4.97;2.90;;;20.00;1.00;;;;;;5084079;28;20050;-81
2021/08/17 12:56:59;;;;;;;3.50;2.63;;;19.60;1.00;;;;;;5078844;28;20571;-81
2021/08/17 12:59:49;;;;;;;4.65;2.88;;;19.60;1.00;;;;;;5096402;28;20039;-81
2021/08/17 13:02:38;;;;;;;4.15;2.97;;;19.80;1.00;;;;;;5105402;28;20047;-80
2021/08/17 13:05:26;;;;;;;4.53;3.30;;;19.60;1.00;;;;;;5093885;27;20102;-82
2021/08/17 13:08:15;;;;;;;4.10;2.75;;;20.00;1.00;;;;;;5101474;27;20051;-82
2021/08/17 13:11:03;;;;;;;5.25;2.97;;;19.80;1.00;;;;;;5102416;28;20040;-82
2021/08/17 13:13:51;;;;;;;7.15;3.30;;;20.10;1.00;;;;;;5099309;28;20155;-83
2021/08/17 13:16:41;;;;;;;5.18;3.15;;;19.60;1.00;;;;;;5089403;28;20075;-82
2021/08/17 13:19:30;;;;;;;5.07;2.92;;;18.80;1.00;;;;;;5096193;28;20123;-81
2021/08/17 13:22:19;;;;;;;5.43;3.33;;;19.60;1.00;;;;;;5083936;28;20047;-80
2021/08/17 13:25:08;;;;;;;5.50;3.38;;;19.90;1.00;;;;;;5100349;28;20721;-80
2021/08/17 13:27:57;;;;;;;4.07;3.08;;;20.30;1.00;;;;;;5102754;28;20085;-81
2021/08/17 13:30:45;;;;;;;6.22;3.40;;;20.00;1.00;;;;;;5096999;27;20061;-81
2021/08/17 13:33:35;;;;;;;4.32;3.22;;;19.30;1.00;;;;;;5101062;27;20385;-83
2021/08/17 13:36:23;;;;;;;5.70;3.47;;;19.60;1.00;;;;;;5102586;28;20048;-81
2021/08/17 13:39:11;;;;;;;4.60;3.50;;;19.50;1.00;;;;;;5106485;27;20057;-81
2021/08/17 13:42:01;;;;;;;7.57;3.72;;;19.00;1.00;;;;;;5073532;28;20042;-81
2021/08/17 13:44:50;;;;;;;6.88;4.50;;;19.00;1.00;;;;;;5101240;28;20127;-81
2021/08/17 13:47:38;;;;;;;4.75;3.40;;;19.20;1.00;;;;;;5100109;28;20051;-81
2021/08/17 13:50:28;;;;;;;5.13;3.30;;;19.60;1.00;;;;;;5099514;28;20056;-81
2021/08/17 13:53:19;;;;;;;5.72;3.90;;;19.30;1.00;;;;;;5102460;28;20071;-81
2021/08/17 13:56:08;;;;;;;7.45;3.88;;;19.30;1.00;;;;;;5101975;27;20054;-81
2021/08/17 13:58:56;;;;;;;6.72;3.70;;;19.40;1.00;;;;;;5087857;28;20791;-81
2021/08/17 14:01:46;;;;;;;5.13;3.67;;;19.00;1.00;;;;;;5084604;28;20073;-81
2021/08/17 14:04:37;;;;;;;5.65;3.70;;;18.90;1.00;;;;;;5079997;28;20495;-81
2021/08/17 14:07:26;;;;;;;8.10;4.28;;;18.80;1.00;;;;;;5078429;28;20392;-82
2021/08/17 14:10:15;;;;;;;6.20;4.07;;;18.90;1.00;;;;;;5092860;27;20044;-82
2021/08/17 14:13:04;;;;;;;5.82;3.90;;;18.80;1.00;;;;;;5087304;28;20152;-81
2021/08/17 14:15:53;;;;;;;5.43;3.58;;;18.70;1.00;;;;;;5106702;28;20094;-81
2021/08/17 14:18:43;;;;;;;6.40;3.90;;;18.60;1.00;;;;;;5089431;28;20043;-81
2021/08/17 14:21:31;;;;;;;6.57;4.10;;;18.80;1.00;;;;;;5096030;27;20055;-81
2021/08/17 14:24:21;;;;;;;6.78;3.78;;;18.70;1.00;;;;;;5104785;27;20055;-81
2021/08/17 14:27:10;;;;;;;4.78;3.38;;;19.30;1.00;;;;;;5105006;27;20130;-81
2021/08/17 14:29:58;;;;;;;6.05;3.97;;;19.40;1.00;;;;;;5095533;28;20410;-81
2021/08/17 14:32:47;;;;;;;5.57;3.75;;;19.10;1.00;;;;;;5101942;28;20527;-82
2021/08/17 14:35:35;;;;;;;6.97;4.13;;;18.80;1.00;;;;;;5085052;28;20114;-80
2021/08/17 14:38:23;;;;;;;5.88;4.15;;;19.00;1.00;;;;;;5103755;27;20056;-81
2021/08/17 14:41:14;;;;;;;7.00;4.45;;;19.10;1.00;;;;;;5100224;28;20046;-81
2021/08/17 14:44:03;;;;;;;6.95;4.25;;;18.70;1.00;;;;;;5077944;28;20084;-81
2021/08/17 14:46:51;;;;;;;6.88;4.32;;;18.90;1.00;;;;;;5070418;28;20050;-81
2021/08/17 14:49:40;;;;;;;7.88;4.32;;;18.50;1.00;;;;;;5081102;28;20111;-81